Time;durP1;ratioP1;P1;durP2;ratioP2;P2;SDS_P1;SDS_P2;PMS_P1;PMS_P2;Temp;Humidity;BMP_temperature;BMP_pressure;BME280_temperature;BME280_humidity;BME280_pressure;Samples;Min_cycle;Max_cycle;Signal;HPM_P1;HPM_P2
2024/03/11 00:00:35;;;;;;;7.90;5.90;;;;;;;-1.17;100.00;101592.66;105691;1255;73111;-73
2024/03/11 00:03:02;;;;;;;10.40;6.20;;;;;;;-1.17;100.00;101593.35;105665;1257;62520;-74
2024/03/11 00:05:30;;;;;;;10.00;6.80;;;;;;;-1.17;100.00;101599.52;105691;1257;72724;-75
2024/03/11 00:07:57;;;;;;;11.00;5.70;;;;;;;-1.20;100.00;101600.88;105804;1255;59626;-74
2024/03/11 00:10:25;;;;;;;10.40;5.90;;;;;;;-1.23;100.00;101604.30;105752;1254;60130;-74
2024/03/11 00:12:53;;;;;;;9.60;6.40;;;;;;;-1.25;100.00;101607.20;105731;1255;71775;-75
2024/03/11 00:15:26;;;;;;;13.70;8.30;;;;;;;-1.29;100.00;101606.52;105772;1257;63721;-72
2024/03/11 00:17:53;;;;;;;12.10;6.20;;;;;;;-1.36;100.00;101605.61;105637;1258;72216;-74
2024/03/11 00:20:21;;;;;;;8.90;5.60;;;;;;;-1.39;100.00;101608.36;105745;1262;61209;-74
2024/03/11 00:22:49;;;;;;;12.90;6.10;;;;;;;-1.38;100.00;101610.42;105729;1257;59610;-73
2024/03/11 00:25:16;;;;;;;9.60;5.90;;;;;;;-1.37;100.00;101611.79;105843;1266;71788;-75
2024/03/11 00:27:44;;;;;;;9.40;5.90;;;;;;;-1.40;100.00;101615.70;105876;1266;64117;-75
2024/03/11 00:30:12;;;;;;;9.10;6.00;;;;;;;-1.42;100.00;101615.36;105705;1253;72624;-75
2024/03/11 00:32:47;;;;;;;9.10;5.60;;;;;;;-1.42;100.00;101619.82;105744;1257;60118;-75
2024/03/11 00:35:15;;;;;;;9.80;6.40;;;;;;;-1.43;100.00;101624.10;105683;1258;59752;-75
2024/03/11 00:37:43;;;;;;;11.90;6.20;;;;;;;-1.40;100.00;101626.70;105705;1259;72145;-74
2024/03/11 00:40:10;;;;;;;9.00;5.70;;;;;;;-1.40;100.00;101630.64;105720;1257;62879;-73
2024/03/11 00:42:38;;;;;;;8.50;5.90;;;;;;;-1.43;100.00;101635.92;105754;1257;72611;-75
2024/03/11 00:45:12;;;;;;;10.10;5.70;;;;;;;-1.49;100.00;101636.08;105743;1258;60515;-76
2024/03/11 00:47:39;;;;;;;9.00;6.20;;;;;;;-1.51;100.00;101635.02;105778;1253;60385;-73
2024/03/11 00:50:07;;;;;;;7.80;5.60;;;;;;;-1.51;100.00;101631.95;105721;1257;72873;-74
2024/03/11 00:52:35;;;;;;;8.00;5.20;;;;;;;-1.52;100.00;101637.42;105818;1257;63886;-75
2024/03/11 00:55:03;;;;;;;7.50;5.40;;;;;;;-1.53;100.00;101635.02;105933;1257;72623;-74
2024/03/11 00:57:30;;;;;;;8.40;5.80;;;;;;;-1.50;100.00;101638.13;105934;1257;59712;-72
2024/03/11 00:59:57;;;;;;;8.60;5.20;;;;;;;-1.45;100.00;101638.15;105830;1254;60385;-73
2024/03/11 01:02:24;;;;;;;8.30;5.70;;;;;;;-1.42;100.00;101645.38;105791;1257;73011;-75
2024/03/11 01:04:52;;;;;;;8.40;5.00;;;;;;;-1.41;100.00;101646.06;105861;1257;63803;-74
2024/03/11 01:07:20;;;;;;;6.50;5.60;;;;;;;-1.41;100.00;101648.98;105748;1257;72650;-74
2024/03/11 01:09:57;;;;;;;10.50;5.80;;;;;;;-1.49;100.00;101655.46;105737;1257;60254;-75
2024/03/11 01:12:25;;;;;;;8.00;4.90;;;;;;;-1.54;100.00;101664.52;105872;1259;60048;-74
2024/03/11 01:14:53;;;;;;;10.70;5.20;;;;;;;-1.57;100.00;101662.95;105801;1254;73042;-74
2024/03/11 01:17:19;;;;;;;6.60;4.80;;;;;;;-1.61;100.00;101668.05;105706;1257;63861;-73
2024/03/11 01:19:47;;;;;;;6.80;4.80;;;;;;;-1.68;100.00;101670.92;105746;1254;71718;-77
2024/03/11 01:22:15;;;;;;;8.50;6.30;;;;;;;-1.71;100.00;101672.96;106092;1257;61239;-74
2024/03/11 01:24:43;;;;;;;10.10;5.40;;;;;;;-1.72;100.00;101670.73;105978;1256;60052;-74
2024/03/11 01:27:10;;;;;;;5.70;3.90;;;;;;;-1.74;100.00;101675.16;105968;1254;72915;-74
2024/03/11 01:29:38;;;;;;;6.20;4.90;;;;;;;-1.75;100.00;101676.17;105779;1257;63899;-76
2024/03/11 01:32:11;;;;;;;7.50;4.60;;;;;;;-1.75;100.00;101679.95;106034;1255;71455;-74
2024/03/11 01:34:41;;;;;;;6.90;4.40;;;;;;;-1.78;100.00;101679.08;105929;1266;59687;-74
2024/03/11 01:37:08;;;;;;;6.20;4.70;;;;;;;-1.78;100.00;101680.80;105782;1257;59635;-75
2024/03/11 01:39:44;;;;;;;6.50;5.30;;;;;;;-1.79;100.00;101686.95;105774;1257;71433;-75
2024/03/11 01:42:14;;;;;;;8.10;5.60;;;;;;;-1.84;100.00;101684.69;105759;1257;62902;-76
2024/03/11 01:44:48;;;;;;;8.10;5.00;;;;;;;-1.88;100.00;101691.16;105714;1254;71216;-74
2024/03/11 01:47:17;;;;;;;6.30;4.90;;;;;;;-1.95;100.00;101690.24;105717;1254;59785;-74
2024/03/11 01:49:45;;;;;;;7.00;4.80;;;;;;;-1.98;100.00;101692.44;105787;1259;60307;-74
2024/03/11 01:52:16;;;;;;;6.40;4.50;;;;;;;-2.03;100.00;101700.28;105705;1257;71935;-75
2024/03/11 01:54:43;;;;;;;6.30;5.00;;;;;;;-2.05;100.00;101703.35;105829;1257;63757;-75
2024/03/11 01:57:10;;;;;;;8.10;5.60;;;;;;;-2.07;100.00;101707.79;105757;1254;72543;-75
2024/03/11 01:59:37;;;;;;;6.10;5.40;;;;;;;-2.09;100.00;101712.73;105728;1254;59679;-75
2024/03/11 02:02:07;;;;;;;5.60;4.90;;;;;;;-2.09;100.00;101713.59;105564;1254;59674;-76
2024/03/11 02:04:35;;;;;;;8.70;5.70;;;;;;;-2.06;100.00;101719.61;105689;1257;72072;-75
2024/03/11 02:07:03;;;;;;;9.00;5.50;;;;;;;-2.04;100.00;101723.40;105769;1254;62481;-74
2024/03/11 02:09:30;;;;;;;7.30;4.80;;;;;;;-2.04;100.00;101727.00;105731;1257;72679;-73
2024/03/11 02:11:59;;;;;;;10.90;6.30;;;;;;;-2.03;100.00;101731.81;105722;1257;59651;-75
2024/03/11 02:14:26;;;;;;;12.40;6.90;;;;;;;-2.01;100.00;101735.59;105805;1257;59592;-73
2024/03/11 02:16:53;;;;;;;8.20;5.90;;;;;;;-2.02;100.00;101740.55;105778;1254;73466;-75
2024/03/11 02:19:20;;;;;;;7.30;5.70;;;;;;;-2.08;100.00;101742.05;105696;1258;63849;-74
2024/03/11 02:21:47;;;;;;;10.90;5.70;;;;;;;-2.11;100.00;101745.27;105677;1257;72432;-74
2024/03/11 02:24:17;;;;;;;9.70;5.80;;;;;;;-2.17;100.00;101751.02;105625;1257;61976;-75
2024/03/11 02:26:48;;;;;;;9.60;6.80;;;;;;;-2.22;100.00;101753.89;105739;1255;60334;-73
2024/03/11 02:29:16;;;;;;;9.40;5.50;;;;;;;-2.23;100.00;101759.00;105710;1255;71663;-73
2024/03/11 02:31:44;;;;;;;6.60;5.60;;;;;;;-2.24;100.00;101758.66;105738;1257;63851;-74
2024/03/11 02:34:11;;;;;;;7.90;6.40;;;;;;;-2.23;100.00;101759.69;105678;1255;72705;-74
2024/03/11 02:36:48;;;;;;;10.20;6.30;;;;;;;-2.23;100.00;101765.86;105696;1257;59624;-75
2024/03/11 02:39:16;;;;;;;6.00;4.90;;;;;;;-2.22;100.00;101766.38;105727;1258;60363;-76
2024/03/11 02:41:43;;;;;;;8.90;5.60;;;;;;;-2.23;100.00;101768.08;105664;1254;71639;-77
2024/03/11 02:44:12;;;;;;;7.40;5.60;;;;;;;-2.25;100.00;101772.17;105691;1262;62387;-77
2024/03/11 02:46:41;;;;;;;7.50;5.40;;;;;;;-2.28;100.00;101775.21;105762;1257;72743;-74
2024/03/11 02:49:09;;;;;;;10.70;6.60;;;;;;;-2.30;100.00;101784.45;105830;1258;59737;-74
2024/03/11 02:51:38;;;;;;;7.70;5.40;;;;;;;-2.35;100.00;101790.38;105898;1257;59701;-76
2024/03/11 02:54:05;;;;;;;8.20;5.40;;;;;;;-2.41;100.00;101796.64;105878;1257;73095;-75
2024/03/11 02:56:32;;;;;;;7.70;5.60;;;;;;;-2.47;100.00;101800.85;105817;1258;63983;-76
2024/03/11 02:59:00;;;;;;;8.80;5.60;;;;;;;-2.51;100.00;101807.31;105864;1256;72649;-74
2024/03/11 03:01:27;;;;;;;5.60;4.90;;;;;;;-2.51;100.00;101812.95;105829;1256;61124;-75
2024/03/11 03:03:54;;;;;;;11.50;5.80;;;;;;;-2.51;100.00;101817.24;105784;1254;60484;-75
2024/03/11 03:06:21;;;;;;;8.60;5.70;;;;;;;-2.49;100.00;101819.83;105722;1257;73717;-73
2024/03/11 03:08:48;;;;;;;6.60;4.80;;;;;;;-2.48;100.00;101826.00;105807;1257;63975;-75
2024/03/11 03:11:15;;;;;;;8.20;5.80;;;;;;;-2.46;100.00;101824.15;105798;1256;72588;-74
2024/03/11 03:13:41;;;;;;;11.70;6.20;;;;;;;-2.47;100.00;101827.04;105718;1257;60321;-75
2024/03/11 03:16:09;;;;;;;8.40;6.70;;;;;;;-2.53;100.00;101830.55;105783;1254;60467;-73
2024/03/11 03:18:36;;;;;;;6.80;5.20;;;;;;;-2.58;100.00;101832.20;106112;1254;73853;-75
2024/03/11 03:21:03;;;;;;;8.00;6.00;;;;;;;-2.59;100.00;101840.75;106468;1254;63800;-72
2024/03/11 03:23:30;;;;;;;8.70;6.10;;;;;;;-2.61;100.00;101843.47;106260;1253;73130;-74
2024/03/11 03:25:57;;;;;;;11.30;6.20;;;;;;;-2.63;100.00;101847.89;106405;1254;61831;-74
2024/03/11 03:28:24;;;;;;;9.60;6.40;;;;;;;-2.64;100.00;101849.07;105918;1257;60422;-76
2024/03/11 03:30:53;;;;;;;8.60;6.00;;;;;;;-2.66;100.00;101852.45;105830;1254;73861;-76
2024/03/11 03:33:20;;;;;;;9.00;5.90;;;;;;;-2.71;100.00;101857.02;105861;1256;62765;-73
2024/03/11 03:35:47;;;;;;;7.60;6.30;;;;;;;-2.74;100.00;101858.34;105790;1257;72616;-75
2024/03/11 03:38:15;;;;;;;7.10;5.50;;;;;;;-2.77;100.00;101860.87;105605;1256;61223;-74
2024/03/11 03:40:42;;;;;;;12.30;6.50;;;;;;;-2.80;100.00;101862.35;105872;1254;60403;-74
2024/03/11 03:43:09;;;;;;;9.80;6.90;;;;;;;-2.85;100.00;101864.33;105945;1257;72373;-75
2024/03/11 03:45:36;;;;;;;10.40;7.00;;;;;;;-2.84;100.00;101870.86;105924;1256;63829;-76
2024/03/11 03:48:04;;;;;;;9.20;6.50;;;;;;;-2.81;100.00;101875.86;105926;1256;72526;-75
2024/03/11 03:50:31;;;;;;;10.90;6.90;;;;;;;-2.82;100.00;101875.50;105755;1258;60553;-74
2024/03/11 03:53:00;;;;;;;9.20;6.10;;;;;;;-2.84;100.00;101879.23;105814;1253;60445;-75
2024/03/11 03:55:29;;;;;;;8.90;7.50;;;;;;;-2.87;100.00;101883.80;105875;1254;73749;-76
2024/03/11 03:57:56;;;;;;;11.90;7.90;;;;;;;-2.89;100.00;101891.13;105832;1257;63945;-76
2024/03/11 04:00:22;;;;;;;10.30;7.60;;;;;;;-2.93;100.00;101893.80;105890;1254;72520;-76
2024/03/11 04:02:50;;;;;;;11.50;7.70;;;;;;;-2.95;100.00;101897.55;105698;1257;62796;-75
2024/03/11 04:05:18;;;;;;;10.40;7.50;;;;;;;-2.95;100.00;101900.79;105872;1257;60351;-75
2024/03/11 04:07:45;;;;;;;10.40;7.30;;;;;;;-2.97;100.00;101900.92;105920;1254;72416;-77
2024/03/11 04:10:13;;;;;;;13.40;7.80;;;;;;;-2.95;100.00;101905.94;105717;1256;63845;-74
2024/03/11 04:12:44;;;;;;;9.70;7.50;;;;;;;-2.90;100.00;101907.54;105703;1254;72478;-75
2024/03/11 04:15:12;;;;;;;11.40;8.20;;;;;;;-2.88;100.00;101910.99;105753;1256;60422;-75
2024/03/11 04:17:40;;;;;;;12.60;7.60;;;;;;;-2.86;100.00;101912.75;105811;1253;60669;-77
2024/03/11 04:20:11;;;;;;;12.70;7.90;;;;;;;-2.85;100.00;101918.25;105718;1254;73766;-75
2024/03/11 04:22:46;;;;;;;12.60;8.50;;;;;;;-2.88;100.00;101922.14;105891;1257;63739;-76
2024/03/11 04:25:15;;;;;;;12.50;8.40;;;;;;;-2.91;100.00;101929.43;105811;1254;71266;-76
2024/03/11 04:27:43;;;;;;;10.90;8.50;;;;;;;-2.93;100.00;101933.34;105771;1254;60525;-76
2024/03/11 04:30:10;;;;;;;11.70;8.10;;;;;;;-2.98;100.00;101936.84;105779;1257;60435;-76
2024/03/11 04:32:40;;;;;;;13.30;8.50;;;;;;;-3.04;100.00;101937.77;105747;1257;73800;-76
2024/03/11 04:35:07;;;;;;;10.30;7.60;;;;;;;-3.05;100.00;101939.61;105690;1253;62518;-77
2024/03/11 04:37:34;;;;;;;12.40;8.20;;;;;;;-3.08;100.00;101939.75;105734;1254;72644;-76
2024/03/11 04:40:06;;;;;;;15.50;7.50;;;;;;;-3.11;100.00;101943.63;105798;1257;60579;-76
2024/03/11 04:42:33;;;;;;;9.70;7.00;;;;;;;-3.15;100.00;101947.16;105801;1257;60402;-76
2024/03/11 04:45:00;;;;;;;10.40;8.20;;;;;;;-3.18;100.00;101950.36;105680;1257;73904;-74
2024/03/11 04:47:26;;;;;;;11.30;7.90;;;;;;;-3.19;100.00;101953.40;105855;1257;63815;-75
2024/03/11 04:49:55;;;;;;;15.80;9.40;;;;;;;-3.23;100.00;101960.69;105795;1257;72728;-76
2024/03/11 04:52:26;;;;;;;11.40;8.70;;;;;;;-3.22;100.00;101964.98;105870;1256;60414;-76
2024/03/11 04:54:53;;;;;;;11.50;8.80;;;;;;;-3.18;100.00;101968.82;105931;1252;60346;-75
2024/03/11 04:57:21;;;;;;;12.70;9.10;;;;;;;-2.96;100.00;101976.90;105817;1253;73893;-76
2024/03/11 04:59:51;;;;;;;17.90;10.30;;;;;;;-2.69;100.00;101976.52;105783;1256;62880;-75
2024/03/11 05:02:19;;;;;;;14.00;8.80;;;;;;;-2.23;100.00;101982.17;105778;1256;72675;-76
2024/03/11 05:04:47;;;;;;;13.00;8.50;;;;;;;-1.67;100.00;101982.09;105706;1257;60436;-76
2024/03/11 05:07:14;;;;;;;12.00;8.70;;;;;;;-1.12;100.00;101989.23;105724;1257;60445;-76
2024/03/11 05:09:40;;;;;;;12.50;8.50;;;;;;;-0.46;100.00;101992.75;105784;1255;73861;-76
2024/03/11 05:12:08;;;;;;;10.80;8.80;;;;;;;0.19;100.00;101994.02;105792;1256;63585;-77
2024/03/11 05:14:34;;;;;;;14.70;8.60;;;;;;;0.61;100.00;101993.67;105814;1255;74550;-77
2024/03/11 05:17:02;;;;;;;13.50;8.40;;;;;;;0.92;100.00;101998.41;105788;1257;60544;-76
2024/03/11 05:19:30;;;;;;;12.30;8.20;;;;;;;1.17;93.59;102006.56;105875;1253;60544;-76
2024/03/11 05:21:57;;;;;;;13.50;7.90;;;;;;;1.38;86.00;102006.58;105844;1253;73981;-76
2024/03/11 05:24:25;;;;;;;13.90;8.30;;;;;;;1.59;83.97;102010.70;105870;1252;63887;-76
2024/03/11 05:26:52;;;;;;;10.90;8.50;;;;;;;1.84;79.00;102010.34;105862;1254;72715;-76
2024/03/11 05:29:19;;;;;;;9.70;8.30;;;;;;;2.07;74.11;102009.95;105939;1256;60448;-76
2024/03/11 05:31:46;;;;;;;11.90;9.10;;;;;;;2.34;69.62;102017.30;105958;1257;60455;-76
2024/03/11 05:34:15;;;;;;;12.40;8.40;;;;;;;2.75;65.70;102023.16;105919;1253;72735;-76
2024/03/11 05:36:42;;;;;;;17.00;8.40;;;;;;;3.12;60.49;102032.64;105936;1256;62689;-76
2024/03/11 05:39:09;;;;;;;12.00;8.10;;;;;;;3.31;56.92;102041.67;106081;1253;72307;-76
2024/03/11 05:41:36;;;;;;;15.80;8.60;;;;;;;3.40;55.48;102045.75;106322;1253;60477;-77
2024/03/11 05:44:03;;;;;;;9.90;7.80;;;;;;;3.61;55.10;102054.08;106440;1254;60527;-75
2024/03/11 05:46:31;;;;;;;18.40;8.50;;;;;;;3.94;52.28;102057.42;106064;1257;74061;-75
2024/03/11 05:49:00;;;;;;;13.10;9.10;;;;;;;4.21;50.09;102052.84;105813;1257;62348;-76
2024/03/11 05:53:37;;;;;;;9.90;7.90;;;;;;;4.86;48.95;102062.81;102690;1289;616477;-76
2024/03/11 05:56:07;;;;;;;9.80;7.30;;;;;;;5.26;46.38;102069.20;104897;1269;59312;-76
2024/03/11 05:58:35;;;;;;;9.90;7.10;;;;;;;5.60;44.66;102074.23;104916;1266;60320;-76
2024/03/11 06:01:02;;;;;;;10.30;7.50;;;;;;;5.99;43.26;102069.96;104891;1270;70442;-77
2024/03/11 06:03:30;;;;;;;11.40;7.70;;;;;;;6.31;42.70;102074.44;104717;1272;63817;-77
2024/03/11 06:05:57;;;;;;;13.30;7.90;;;;;;;6.68;41.28;102076.33;104798;1269;232168;-77
2024/03/11 06:08:27;;;;;;;11.30;7.80;;;;;;;7.09;40.65;102078.41;105177;1264;59244;-77
2024/03/11 06:10:55;;;;;;;11.30;8.20;;;;;;;7.50;39.13;102079.75;105188;1269;60154;-76
2024/03/11 06:13:22;;;;;;;12.00;7.60;;;;;;;7.66;38.19;102082.67;105048;1266;70862;-77
2024/03/11 06:15:49;;;;;;;12.70;8.00;;;;;;;7.81;37.98;102082.98;105093;1269;63864;-77
2024/03/11 06:18:16;;;;;;;10.60;7.40;;;;;;;8.14;36.75;102089.83;105030;1269;72711;-75
2024/03/11 06:20:44;;;;;;;11.70;7.80;;;;;;;8.24;36.31;102086.58;104954;1269;59632;-78
2024/03/11 06:23:10;;;;;;;9.70;6.80;;;;;;;8.38;35.55;102088.16;105027;1269;59730;-76
2024/03/11 06:25:37;;;;;;;7.50;6.40;;;;;;;8.55;35.32;102094.33;105012;1268;73078;-76
2024/03/11 06:28:04;;;;;;;8.70;6.40;;;;;;;8.83;34.38;102098.05;105031;1269;63892;-75
2024/03/11 06:30:34;;;;;;;6.90;6.10;;;;;;;9.03;34.07;102096.96;105112;1269;71577;-77
2024/03/11 06:33:01;;;;;;;7.90;5.40;;;;;;;9.21;33.12;102104.42;105167;1267;59621;-77
2024/03/11 06:35:29;;;;;;;8.80;4.40;;;;;;;9.49;32.83;102104.98;105025;1265;60459;-75
2024/03/11 06:37:56;;;;;;;6.80;5.00;;;;;;;9.73;31.55;102101.75;105004;1264;73077;-77
2024/03/11 06:40:23;;;;;;;6.60;5.10;;;;;;;9.95;31.48;102108.03;105039;1269;64015;-76
2024/03/11 06:42:52;;;;;;;8.20;5.20;;;;;;;10.31;30.99;102113.12;105064;1267;72538;-77
2024/03/11 06:45:20;;;;;;;6.70;5.20;;;;;;;10.40;30.90;102113.16;105801;1256;60094;-76
2024/03/11 06:47:47;;;;;;;8.70;4.40;;;;;;;10.69;30.83;102116.34;105887;1258;60141;-77
2024/03/11 06:50:15;;;;;;;11.40;4.80;;;;;;;11.17;30.01;102121.19;105784;1256;72553;-76
2024/03/11 06:52:42;;;;;;;7.10;5.70;;;;;;;11.47;29.16;102121.62;105724;1257;63270;-77
2024/03/11 06:55:12;;;;;;;11.30;4.90;;;;;;;11.46;28.91;102122.67;105720;1253;72534;-77
2024/03/11 06:57:41;;;;;;;8.60;5.60;;;;;;;11.45;28.53;102121.15;105860;1254;62310;-78
2024/03/11 07:00:17;;;;;;;7.60;5.20;;;;;;;11.35;28.33;102126.09;105810;1258;60554;-78
2024/03/11 07:02:46;;;;;;;10.40;5.20;;;;;;;11.45;28.10;102126.77;106214;1256;74126;-77
2024/03/11 07:05:14;;;;;;;6.50;4.40;;;;;;;11.52;28.14;102131.01;105795;1257;63926;-77
2024/03/11 07:07:42;;;;;;;10.60;5.60;;;;;;;11.57;27.61;102128.55;105763;1260;72559;-76
2024/03/11 07:10:12;;;;;;;8.50;4.30;;;;;;;11.53;27.79;102125.73;105767;1256;60442;-77
2024/03/11 07:12:40;;;;;;;6.90;4.60;;;;;;;11.64;27.99;102121.98;105815;1257;60391;-76
2024/03/11 07:15:07;;;;;;;7.50;5.60;;;;;;;11.92;27.49;102121.02;105807;1256;72619;-76
2024/03/11 07:17:35;;;;;;;8.70;5.10;;;;;;;12.17;26.93;102122.63;105760;1257;63738;-76
2024/03/11 07:20:07;;;;;;;6.40;4.50;;;;;;;12.19;26.59;102125.52;105902;1256;71809;-77
2024/03/11 07:22:38;;;;;;;12.10;5.10;;;;;;;12.24;26.71;102127.41;105785;1256;60299;-78
2024/03/11 07:25:10;;;;;;;8.80;4.80;;;;;;;12.45;26.00;102122.98;105912;1257;60206;-76
2024/03/11 07:27:38;;;;;;;6.00;4.00;;;;;;;12.42;25.76;102126.98;105741;1256;72186;-77
2024/03/11 07:30:07;;;;;;;9.40;5.50;;;;;;;12.56;25.74;102123.05;105878;1254;63980;-77
2024/03/11 07:32:35;;;;;;;9.20;4.40;;;;;;;12.59;25.43;102126.42;105861;1256;72821;-77
2024/03/11 07:35:02;;;;;;;6.40;4.20;;;;;;;12.67;25.27;102130.09;105845;1256;60713;-76
2024/03/11 07:37:36;;;;;;;10.90;5.00;;;;;;;12.61;25.12;102128.10;106312;1254;61332;-75
2024/03/11 07:40:06;;;;;;;5.80;3.90;;;;;;;12.46;24.85;102132.96;108345;1256;71764;-76
2024/03/11 07:42:34;;;;;;;5.70;4.00;;;;;;;12.41;24.88;102129.48;105911;1257;62950;-77
2024/03/11 07:45:02;;;;;;;6.80;3.90;;;;;;;12.42;24.76;102135.03;105875;1257;71467;-76
2024/03/11 07:47:29;;;;;;;4.80;3.40;;;;;;;12.39;24.59;102136.05;105846;1257;60519;-75
2024/03/11 07:49:58;;;;;;;5.20;3.30;;;;;;;12.29;24.03;102132.80;105855;1257;59631;-77
2024/03/11 07:52:25;;;;;;;4.50;2.50;;;;;;;12.29;24.04;102135.98;105836;1256;72064;-77
2024/03/11 07:54:53;;;;;;;7.60;3.20;;;;;;;12.40;23.43;102135.48;105822;1257;64260;-76
2024/03/11 07:57:20;;;;;;;2.30;2.00;;;;;;;12.50;23.22;102131.73;105774;1257;70541;-77
2024/03/11 07:59:47;;;;;;;3.40;2.20;;;;;;;12.54;23.00;102130.32;105820;1266;59822;-76
2024/03/11 08:02:15;;;;;;;4.70;2.60;;;;;;;12.43;23.03;102129.39;105761;1257;60907;-77
2024/03/11 08:04:42;;;;;;;9.90;3.20;;;;;;;12.34;23.27;102128.02;105807;1256;73100;-76
2024/03/11 08:07:09;;;;;;;4.20;2.80;;;;;;;12.46;23.38;102125.92;105923;1254;63757;-78
2024/03/11 08:09:37;;;;;;;3.60;3.30;;;;;;;12.84;23.17;102123.20;105801;1257;71449;-76
2024/03/11 08:12:05;;;;;;;6.20;2.80;;;;;;;13.09;22.67;102126.10;105779;1256;60544;-76
2024/03/11 08:14:33;;;;;;;3.10;2.80;;;;;;;13.30;22.70;102128.29;105863;1258;60455;-75
2024/03/11 08:17:01;;;;;;;6.00;2.80;;;;;;;13.59;22.32;102129.71;105967;1257;74251;-77
2024/03/11 08:19:31;;;;;;;5.30;2.70;;;;;;;13.87;22.06;102125.54;105945;1254;64079;-76
2024/03/11 08:22:03;;;;;;;5.40;2.30;;;;;;;14.02;21.88;102121.98;105946;1255;72633;-75
2024/03/11 08:24:30;;;;;;;3.90;2.40;;;;;;;14.09;21.92;102126.91;105920;1266;59884;-78
2024/03/11 08:26:58;;;;;;;6.40;2.90;;;;;;;14.28;21.35;102133.30;106054;1257;61691;-79
2024/03/11 08:29:26;;;;;;;6.10;2.70;;;;;;;14.27;21.45;102129.48;105796;1266;74192;-77
2024/03/11 08:31:53;;;;;;;6.90;2.80;;;;;;;14.25;21.58;102123.64;105948;1257;61679;-77
2024/03/11 08:34:23;;;;;;;4.80;2.30;;;;;;;14.36;21.57;102119.92;105929;1253;73033;-76
2024/03/11 08:36:51;;;;;;;3.80;2.20;;;;;;;14.59;21.41;102119.77;105819;1257;60688;-77
2024/03/11 08:39:21;;;;;;;5.40;2.40;;;;;;;14.79;21.19;102120.48;105879;1255;61601;-77
2024/03/11 08:41:48;;;;;;;4.00;2.70;;;;;;;14.76;21.05;102118.71;105703;1260;73149;-77
2024/03/11 08:44:15;;;;;;;4.70;2.80;;;;;;;14.78;20.95;102119.98;105823;1257;64785;-77
2024/03/11 08:46:43;;;;;;;3.90;2.30;;;;;;;14.78;20.97;102119.84;105867;1255;72676;-76
2024/03/11 08:49:11;;;;;;;5.30;2.50;;;;;;;14.97;20.79;102120.20;105781;1254;61325;-76
2024/03/11 08:51:41;;;;;;;5.80;3.00;;;;;;;15.24;20.53;102118.73;105775;1266;59984;-76
2024/03/11 08:54:07;;;;;;;7.00;2.60;;;;;;;15.41;20.57;102125.67;105745;1256;73184;-77
2024/03/11 08:56:34;;;;;;;6.20;2.10;;;;;;;15.65;20.43;102128.07;105889;1254;62916;-76
2024/03/11 08:59:01;;;;;;;4.70;2.20;;;;;;;15.80;20.17;102129.34;105728;1257;72898;-77
2024/03/11 09:01:29;;;;;;;8.90;2.20;;;;;;;15.91;20.13;102128.52;105730;1257;60439;-77
2024/03/11 09:03:56;;;;;;;7.60;2.70;;;;;;;16.10;19.93;102126.89;105781;1254;59806;-78
2024/03/11 09:06:24;;;;;;;7.90;2.20;;;;;;;16.18;19.74;102136.13;106013;1254;72944;-77
2024/03/11 09:08:57;;;;;;;4.30;1.80;;;;;;;16.19;19.52;102134.46;106163;1256;63917;-75
2024/03/11 09:11:25;;;;;;;4.50;2.10;;;;;;;16.16;19.20;102137.45;106352;1256;72746;-76
2024/03/11 09:13:52;;;;;;;4.60;2.20;;;;;;;16.04;19.27;102132.91;105804;1256;59614;-75
2024/03/11 09:16:20;;;;;;;5.80;2.40;;;;;;;15.96;19.44;102132.46;105933;1259;60552;-76
2024/03/11 09:18:47;;;;;;;5.70;2.80;;;;;;;16.07;19.69;102134.27;105907;1256;71909;-77
2024/03/11 09:21:14;;;;;;;3.80;2.00;;;;;;;16.30;19.62;102136.66;105775;1256;64079;-76
2024/03/11 09:23:43;;;;;;;3.10;2.30;;;;;;;16.47;19.31;102132.98;105694;1260;71671;-77
2024/03/11 09:26:10;;;;;;;5.20;2.40;;;;;;;16.43;19.03;102131.94;105842;1256;60647;-74
2024/03/11 09:28:37;;;;;;;8.40;2.60;;;;;;;16.25;19.00;102129.48;105738;1257;59822;-76
2024/03/11 09:31:04;;;;;;;6.10;2.10;;;;;;;16.07;19.07;102127.92;105852;1258;73304;-74
2024/03/11 09:33:32;;;;;;;5.50;2.10;;;;;;;16.06;18.98;102122.39;105678;1255;64873;-74
2024/03/11 09:35:58;;;;;;;7.60;2.30;;;;;;;15.94;18.88;102125.31;105712;1258;73738;-75
2024/03/11 09:38:26;;;;;;;6.60;2.20;;;;;;;15.58;18.98;102123.35;105729;1257;60406;-76
2024/03/11 09:40:53;;;;;;;2.50;1.70;;;;;;;15.49;19.28;102128.98;105791;1255;59594;-74
2024/03/11 09:43:20;;;;;;;1.80;1.60;;;;;;;15.64;18.84;102131.65;105819;1261;74029;-75
2024/03/11 09:45:51;;;;;;;4.30;1.90;;;;;;;15.70;18.97;102127.08;105780;1261;63282;-76
2024/03/11 09:48:18;;;;;;;5.20;1.90;;;;;;;15.77;18.92;102125.46;105885;1253;70724;-75
2024/03/11 09:50:45;;;;;;;5.10;2.10;;;;;;;15.71;18.76;102131.08;105849;1257;60676;-75
2024/03/11 09:53:18;;;;;;;2.00;1.60;;;;;;;15.63;19.00;102127.32;105754;1265;60130;-75
2024/03/11 09:55:45;;;;;;;2.20;1.70;;;;;;;15.69;19.29;102127.34;105905;1255;73487;-75
2024/03/11 09:58:15;;;;;;;3.40;2.30;;;;;;;15.90;19.03;102124.52;106259;1257;62776;-75
2024/03/11 10:00:49;;;;;;;3.50;1.90;;;;;;;16.01;18.82;102125.14;105787;1255;70963;-75
2024/03/11 10:03:21;;;;;;;3.30;1.80;;;;;;;15.59;18.88;102125.60;106046;1254;60422;-74
2024/03/11 10:05:56;;;;;;;5.40;2.20;;;;;;;15.41;19.38;102123.43;105846;1255;60623;-74
2024/03/11 10:08:25;;;;;;;3.80;1.70;;;;;;;15.39;19.20;102124.05;105830;1256;73554;-76
2024/03/11 10:11:14;;;;;;;8.30;1.90;;;;;;;15.31;19.41;102122.89;105985;1257;64240;-75
2024/03/11 10:13:41;;;;;;;3.80;2.00;;;;;;;15.22;19.61;102120.63;105781;1257;73637;-75
2024/03/11 10:16:16;;;;;;;5.00;2.80;;;;;;;15.46;19.72;102124.01;105901;1257;60456;-75
2024/03/11 10:19:02;;;;;;;3.90;2.10;;;;;;;15.96;19.44;102129.11;105731;1254;60678;-77
2024/03/11 10:21:31;;;;;;;3.50;2.00;;;;;;;16.29;18.98;102130.54;105727;1254;75066;-77
2024/03/11 10:23:59;;;;;;;3.20;1.80;;;;;;;16.52;18.65;102128.96;105752;1254;63915;-76
2024/03/11 10:26:28;;;;;;;7.50;2.20;;;;;;;16.38;18.39;102134.54;105830;1256;71744;-76
2024/03/11 10:28:56;;;;;;;5.70;2.40;;;;;;;15.97;18.94;102126.93;105868;1254;60635;-75
2024/03/11 10:31:33;;;;;;;2.80;2.00;;;;;;;15.86;19.05;102134.46;105866;1256;60453;-75
2024/03/11 10:34:12;;;;;;;4.70;2.50;;;;;;;15.72;18.96;102137.70;105871;1254;73684;-75
2024/03/11 10:36:41;;;;;;;3.30;2.00;;;;;;;15.54;19.20;102131.27;105762;1255;63978;-75
2024/03/11 10:41:51;;;;;;;5.50;2.20;;;;;;;15.29;19.28;102123.52;105719;1256;60440;-75
2024/03/11 10:44:29;;;;;;;2.50;2.20;;;;;;;15.19;19.24;102119.52;105811;1253;60409;-75
2024/03/11 10:47:02;;;;;;;3.20;2.40;;;;;;;15.19;19.36;102121.81;105891;1254;73978;-75
2024/03/11 10:49:29;;;;;;;2.20;1.70;;;;;;;15.22;19.52;102122.52;105820;1258;63816;-75
2024/03/11 10:52:07;;;;;;;3.80;2.20;;;;;;;15.29;19.28;102123.59;106708;1252;72152;-74
2024/03/11 10:54:38;;;;;;;2.70;2.10;;;;;;;15.15;19.26;102122.75;107286;1254;60929;-75
2024/03/11 10:57:24;;;;;;;2.90;1.70;;;;;;;15.16;19.06;102125.68;106950;1257;61420;-75
2024/03/11 10:59:51;;;;;;;4.70;1.70;;;;;;;15.11;19.08;102134.05;106413;1256;73918;-76
2024/03/11 11:02:20;;;;;;;3.50;2.00;;;;;;;14.96;19.66;102131.21;105740;1256;63117;-76
2024/03/11 11:04:53;;;;;;;3.10;2.70;;;;;;;15.02;18.95;102132.10;105766;1256;73401;-75
2024/03/11 11:07:29;;;;;;;2.70;1.90;;;;;;;15.01;18.86;102129.86;105865;1254;60425;-76
2024/03/11 11:10:01;;;;;;;4.60;2.80;;;;;;;15.01;18.96;102134.07;105781;1254;60783;-76
2024/03/11 11:12:31;;;;;;;2.70;2.10;;;;;;;15.00;19.00;102132.54;105872;1257;74762;-75
2024/03/11 11:15:02;;;;;;;4.10;2.40;;;;;;;15.03;18.89;102129.55;105750;1254;64707;-76
2024/03/11 11:17:29;;;;;;;4.20;2.30;;;;;;;15.04;18.71;102129.50;105893;1255;72727;-75
2024/03/11 11:19:57;;;;;;;5.80;3.70;;;;;;;14.95;18.72;102130.91;105930;1257;60472;-76
2024/03/11 11:22:28;;;;;;;4.80;2.10;;;;;;;14.83;18.79;102132.41;105765;1254;61758;-75